sensor_id;sensor_type;location;lat;lon;timestamp;pressure;altitude;pressure_sealevel;temperature;humidity
39267;BME280;24967;51.154;13.812;2022-07-23T00:00:56;99583.47;;;21.38;60.44
39267;BME280;24967;51.154;13.812;2022-07-23T00:03:22;99584.47;;;21.44;60.09
39267;BME280;24967;51.154;13.812;2022-07-23T00:05:50;99586.81;;;21.34;60.08
39267;BME280;24967;51.154;13.812;2022-07-23T00:08:16;99593.09;;;21.27;59.95
39267;BME280;24967;51.154;13.812;2022-07-23T00:10:44;99588.34;;;21.23;60.17
39267;BME280;24967;51.154;13.812;2022-07-23T00:13:11;99577.34;;;21.18;60.53
39267;BME280;24967;51.154;13.812;2022-07-23T00:15:37;99576.97;;;21.14;60.84
39267;BME280;24967;51.154;13.812;2022-07-23T00:18:04;99572.22;;;21.10;61.29
39267;BME280;24967;51.154;13.812;2022-07-23T00:20:30;99575.94;;;21.09;61.49
39267;BME280;24967;51.154;13.812;2022-07-23T00:22:56;99572.66;;;21.07;61.65
39267;BME280;24967;51.154;13.812;2022-07-23T00:25:23;99570.78;;;21.07;61.91
39267;BME280;24967;51.154;13.812;2022-07-23T00:27:51;99581.59;;;21.07;61.91
39267;BME280;24967;51.154;13.812;2022-07-23T00:30:18;99580.97;;;21.05;62.04
39267;BME280;24967;51.154;13.812;2022-07-23T00:32:46;99574.13;;;21.02;62.04
39267;BME280;24967;51.154;13.812;2022-07-23T00:35:13;99577.50;;;20.98;62.36
39267;BME280;24967;51.154;13.812;2022-07-23T00:37:39;99581.84;;;20.99;62.70
39267;BME280;24967;51.154;13.812;2022-07-23T00:40:07;99569.38;;;20.98;62.72
39267;BME280;24967;51.154;13.812;2022-07-23T00:42:34;99567.31;;;21.00;62.91
39267;BME280;24967;51.154;13.812;2022-07-23T00:45:02;99572.91;;;20.98;63.06
39267;BME280;24967;51.154;13.812;2022-07-23T00:47:28;99564.41;;;20.95;63.03
39267;BME280;24967;51.154;13.812;2022-07-23T00:49:55;99565.25;;;20.95;62.95
39267;BME280;24967;51.154;13.812;2022-07-23T00:52:21;99575.44;;;20.93;63.21
39267;BME280;24967;51.154;13.812;2022-07-23T00:54:48;99576.28;;;20.87;63.82
39267;BME280;24967;51.154;13.812;2022-07-23T00:57:14;99572.44;;;20.76;64.51
39267;BME280;24967;51.154;13.812;2022-07-23T00:59:41;99572.59;;;20.81;64.10
39267;BME280;24967;51.154;13.812;2022-07-23T01:02:09;99570.94;;;20.80;63.93
39267;BME280;24967;51.154;13.812;2022-07-23T01:04:36;99563.88;;;20.79;64.34
39267;BME280;24967;51.154;13.812;2022-07-23T01:07:03;99560.38;;;20.79;64.58
39267;BME280;24967;51.154;13.812;2022-07-23T01:09:30;99559.31;;;20.80;64.77
39267;BME280;24967;51.154;13.812;2022-07-23T01:11:59;99557.91;;;20.71;65.55
39267;BME280;24967;51.154;13.812;2022-07-23T01:14:25;99560.88;;;20.56;65.53
39267;BME280;24967;51.154;13.812;2022-07-23T01:16:52;99556.53;;;20.55;65.65
39267;BME280;24967;51.154;13.812;2022-07-23T01:19:20;99552.50;;;20.71;64.86
39267;BME280;24967;51.154;13.812;2022-07-23T01:21:48;99549.84;;;20.64;65.11
39267;BME280;24967;51.154;13.812;2022-07-23T01:24:17;99542.16;;;20.61;65.34
39267;BME280;24967;51.154;13.812;2022-07-23T01:26:47;99533.69;;;20.57;65.94
39267;BME280;24967;51.154;13.812;2022-07-23T01:29:14;99527.25;;;20.52;66.38
39267;BME280;24967;51.154;13.812;2022-07-23T01:31:40;99524.56;;;20.52;67.17
39267;BME280;24967;51.154;13.812;2022-07-23T01:34:07;99536.97;;;20.59;66.77
39267;BME280;24967;51.154;13.812;2022-07-23T01:36:34;99523.25;;;20.61;67.24
39267;BME280;24967;51.154;13.812;2022-07-23T01:39:02;99508.00;;;20.35;68.78
39267;BME280;24967;51.154;13.812;2022-07-23T01:41:30;99508.38;;;20.39;68.82
39267;BME280;24967;51.154;13.812;2022-07-23T01:43:57;99501.25;;;20.51;67.80
39267;BME280;24967;51.154;13.812;2022-07-23T01:46:23;99496.75;;;20.38;68.59
39267;BME280;24967;51.154;13.812;2022-07-23T01:48:50;99495.25;;;20.49;67.89
39267;BME280;24967;51.154;13.812;2022-07-23T01:51:16;99487.34;;;20.54;67.46
39267;BME280;24967;51.154;13.812;2022-07-23T01:53:47;99478.81;;;20.57;67.21
39267;BME280;24967;51.154;13.812;2022-07-23T01:56:13;99487.16;;;20.55;66.87
39267;BME280;24967;51.154;13.812;2022-07-23T01:58:41;99473.66;;;20.49;66.98
39267;BME280;24967;51.154;13.812;2022-07-23T02:01:08;99467.03;;;20.45;66.72
39267;BME280;24967;51.154;13.812;2022-07-23T02:03:34;99470.78;;;20.44;66.61
39267;BME280;24967;51.154;13.812;2022-07-23T02:06:01;99473.28;;;20.39;66.74
39267;BME280;24967;51.154;13.812;2022-07-23T02:08:27;99475.97;;;20.39;66.76
39267;BME280;24967;51.154;13.812;2022-07-23T02:10:54;99481.63;;;20.37;66.92
39267;BME280;24967;51.154;13.812;2022-07-23T02:13:20;99479.50;;;20.39;67.08
39267;BME280;24967;51.154;13.812;2022-07-23T02:15:48;99477.66;;;20.40;67.65
39267;BME280;24967;51.154;13.812;2022-07-23T02:18:15;99477.22;;;20.43;67.98
39267;BME280;24967;51.154;13.812;2022-07-23T02:20:41;99473.03;;;20.47;68.19
39267;BME280;24967;51.154;13.812;2022-07-23T02:23:09;99462.63;;;20.50;68.33
39267;BME280;24967;51.154;13.812;2022-07-23T02:25:36;99467.19;;;20.56;67.95
39267;BME280;24967;51.154;13.812;2022-07-23T02:28:03;99457.84;;;20.59;68.10
39267;BME280;24967;51.154;13.812;2022-07-23T02:30:29;99455.31;;;20.64;68.12
39267;BME280;24967;51.154;13.812;2022-07-23T02:32:57;99455.69;;;20.68;67.94
39267;BME280;24967;51.154;13.812;2022-07-23T02:35:24;99450.75;;;20.65;67.82
39267;BME280;24967;51.154;13.812;2022-07-23T02:37:50;99455.97;;;20.59;67.82
39267;BME280;24967;51.154;13.812;2022-07-23T02:40:17;99457.63;;;20.61;67.66
39267;BME280;24967;51.154;13.812;2022-07-23T02:42:43;99477.34;;;20.61;67.53
39267;BME280;24967;51.154;13.812;2022-07-23T02:45:10;99464.72;;;20.55;67.90
39267;BME280;24967;51.154;13.812;2022-07-23T02:47:36;99451.22;;;20.55;67.88
39267;BME280;24967;51.154;13.812;2022-07-23T02:50:06;99456.19;;;20.58;67.93
39267;BME280;24967;51.154;13.812;2022-07-23T02:52:32;99447.66;;;20.54;68.19
39267;BME280;24967;51.154;13.812;2022-07-23T02:54:59;99457.22;;;20.50;68.49
39267;BME280;24967;51.154;13.812;2022-07-23T02:57:25;99449.78;;;20.52;68.57
39267;BME280;24967;51.154;13.812;2022-07-23T02:59:52;99441.69;;;20.52;68.46
39267;BME280;24967;51.154;13.812;2022-07-23T03:02:18;99435.00;;;20.48;68.57
39267;BME280;24967;51.154;13.812;2022-07-23T03:04:45;99448.13;;;20.45;68.88
39267;BME280;24967;51.154;13.812;2022-07-23T03:07:12;99434.28;;;20.34;69.43
39267;BME280;24967;51.154;13.812;2022-07-23T03:09:39;99429.69;;;20.35;69.22
39267;BME280;24967;51.154;13.812;2022-07-23T03:12:06;99436.53;;;20.38;69.20
39267;BME280;24967;51.154;13.812;2022-07-23T03:14:32;99440.06;;;20.38;69.01
39267;BME280;24967;51.154;13.812;2022-07-23T03:16:59;99445.25;;;20.40;68.92
39267;BME280;24967;51.154;13.812;2022-07-23T03:19:26;99440.44;;;20.42;68.88
39267;BME280;24967;51.154;13.812;2022-07-23T03:21:52;99443.34;;;20.47;68.65
39267;BME280;24967;51.154;13.812;2022-07-23T03:24:20;99442.91;;;20.50;68.86
39267;BME280;24967;51.154;13.812;2022-07-23T03:26:48;99436.06;;;20.47;69.34
39267;BME280;24967;51.154;13.812;2022-07-23T03:29:15;99437.28;;;20.51;69.32
39267;BME280;24967;51.154;13.812;2022-07-23T03:31:42;99435.47;;;20.52;69.48
39267;BME280;24967;51.154;13.812;2022-07-23T03:34:08;99437.28;;;20.51;69.43
39267;BME280;24967;51.154;13.812;2022-07-23T03:36:35;99433.19;;;20.42;69.52
39267;BME280;24967;51.154;13.812;2022-07-23T03:39:01;99421.34;;;20.43;69.54
39267;BME280;24967;51.154;13.812;2022-07-23T03:41:30;99423.78;;;20.51;69.27
39267;BME280;24967;51.154;13.812;2022-07-23T03:43:56;99417.38;;;20.52;69.29
39267;BME280;24967;51.154;13.812;2022-07-23T03:46:23;99403.22;;;20.57;69.18
39267;BME280;24967;51.154;13.812;2022-07-23T03:48:49;99415.84;;;20.63;69.07
39267;BME280;24967;51.154;13.812;2022-07-23T03:51:15;99414.38;;;20.67;69.01
39267;BME280;24967;51.154;13.812;2022-07-23T03:53:42;99420.97;;;20.71;69.01
39267;BME280;24967;51.154;13.812;2022-07-23T03:56:08;99423.72;;;20.90;69.59
39267;BME280;24967;51.154;13.812;2022-07-23T03:58:36;99419.91;;;20.79;69.82
39267;BME280;24967;51.154;13.812;2022-07-23T04:01:02;99409.91;;;20.79;69.86
39267;BME280;24967;51.154;13.812;2022-07-23T04:03:29;99419.22;;;20.84;69.66
39267;BME280;24967;51.154;13.812;2022-07-23T04:05:55;99411.50;;;20.87;69.70
39267;BME280;24967;51.154;13.812;2022-07-23T04:08:21;99416.88;;;20.94;69.42
39267;BME280;24967;51.154;13.812;2022-07-23T04:10:48;99421.75;;;21.03;69.87
39267;BME280;24967;51.154;13.812;2022-07-23T04:13:14;99425.94;;;20.99;70.00
39267;BME280;24967;51.154;13.812;2022-07-23T04:15:42;99426.78;;;21.00;70.46
39267;BME280;24967;51.154;13.812;2022-07-23T04:18:08;99423.91;;;20.95;70.73
39267;BME280;24967;51.154;13.812;2022-07-23T04:20:35;99430.38;;;20.94;71.01
39267;BME280;24967;51.154;13.812;2022-07-23T04:23:01;99429.88;;;21.03;70.48
39267;BME280;24967;51.154;13.812;2022-07-23T04:25:28;99443.19;;;21.23;70.46
39267;BME280;24967;51.154;13.812;2022-07-23T04:27:54;99444.84;;;20.99;71.29
39267;BME280;24967;51.154;13.812;2022-07-23T04:30:21;99438.78;;;21.04;71.13
39267;BME280;24967;51.154;13.812;2022-07-23T04:32:49;99431.50;;;21.04;71.37
39267;BME280;24967;51.154;13.812;2022-07-23T04:35:15;99431.75;;;21.03;71.64
39267;BME280;24967;51.154;13.812;2022-07-23T04:37:42;99428.69;;;20.93;72.32
39267;BME280;24967;51.154;13.812;2022-07-23T04:40:10;99428.50;;;20.94;72.32
39267;BME280;24967;51.154;13.812;2022-07-23T04:42:36;99439.47;;;21.24;71.47
39267;BME280;24967;51.154;13.812;2022-07-23T04:45:03;99447.16;;;21.21;71.43
39267;BME280;24967;51.154;13.812;2022-07-23T04:47:30;99439.78;;;21.10;71.56
39267;BME280;24967;51.154;13.812;2022-07-23T04:49:58;99425.38;;;20.91;72.37
39267;BME280;24967;51.154;13.812;2022-07-23T04:52:24;99425.00;;;20.62;73.43
39267;BME280;24967;51.154;13.812;2022-07-23T04:54:51;99421.53;;;20.55;73.69
39267;BME280;24967;51.154;13.812;2022-07-23T04:57:17;99426.88;;;20.62;73.55
39267;BME280;24967;51.154;13.812;2022-07-23T04:59:43;99423.38;;;20.54;73.85
39267;BME280;24967;51.154;13.812;2022-07-23T05:02:10;99423.91;;;20.70;73.20
39267;BME280;24967;51.154;13.812;2022-07-23T05:04:36;99422.47;;;20.67;73.25
39267;BME280;24967;51.154;13.812;2022-07-23T05:07:05;99417.44;;;20.71;73.35
39267;BME280;24967;51.154;13.812;2022-07-23T05:09:31;99414.94;;;20.76;73.27
39267;BME280;24967;51.154;13.812;2022-07-23T05:11:59;99416.06;;;20.87;72.59
39267;BME280;24967;51.154;13.812;2022-07-23T05:14:26;99424.44;;;20.78;72.86
39267;BME280;24967;51.154;13.812;2022-07-23T05:16:53;99432.97;;;20.75;73.16
39267;BME280;24967;51.154;13.812;2022-07-23T05:19:20;99434.59;;;20.83;72.81
39267;BME280;24967;51.154;13.812;2022-07-23T05:21:46;99425.94;;;20.99;71.97
39267;BME280;24967;51.154;13.812;2022-07-23T05:24:15;99435.91;;;20.99;72.21
39267;BME280;24967;51.154;13.812;2022-07-23T05:26:41;99440.88;;;21.02;72.26
39267;BME280;24967;51.154;13.812;2022-07-23T05:29:08;99449.53;;;21.11;72.08
39267;BME280;24967;51.154;13.812;2022-07-23T05:31:34;99454.06;;;21.17;72.22
39267;BME280;24967;51.154;13.812;2022-07-23T05:34:00;99451.22;;;21.30;71.50
39267;BME280;24967;51.154;13.812;2022-07-23T05:36:27;99441.44;;;21.36;71.80
39267;BME280;24967;51.154;13.812;2022-07-23T05:38:53;99448.38;;;21.50;70.65
39267;BME280;24967;51.154;13.812;2022-07-23T05:41:21;99452.59;;;21.64;70.10
39267;BME280;24967;51.154;13.812;2022-07-23T05:43:48;99448.84;;;21.65;70.13
39267;BME280;24967;51.154;13.812;2022-07-23T05:46:14;99460.09;;;21.81;69.13
39267;BME280;24967;51.154;13.812;2022-07-23T05:48:41;99467.56;;;21.85;68.78
39267;BME280;24967;51.154;13.812;2022-07-23T05:51:07;99490.94;;;21.98;68.99
39267;BME280;24967;51.154;13.812;2022-07-23T05:53:34;99509.63;;;21.81;69.29
39267;BME280;24967;51.154;13.812;2022-07-23T05:56:01;99517.88;;;21.18;71.99
39267;BME280;24967;51.154;13.812;2022-07-23T05:58:29;99507.13;;;21.11;72.53
39267;BME280;24967;51.154;13.812;2022-07-23T06:00:55;99501.66;;;21.18;72.50
39267;BME280;24967;51.154;13.812;2022-07-23T06:03:22;99503.84;;;21.09;72.82
39267;BME280;24967;51.154;13.812;2022-07-23T06:05:48;99502.03;;;20.96;72.81
39267;BME280;24967;51.154;13.812;2022-07-23T06:08:15;99515.06;;;20.74;73.71
39267;BME280;24967;51.154;13.812;2022-07-23T06:10:41;99524.72;;;20.95;72.88
39267;BME280;24967;51.154;13.812;2022-07-23T06:13:07;99546.72;;;20.99;72.92
39267;BME280;24967;51.154;13.812;2022-07-23T06:15:35;99538.75;;;20.72;73.41
39267;BME280;24967;51.154;13.812;2022-07-23T06:18:02;99535.56;;;20.44;74.43
39267;BME280;24967;51.154;13.812;2022-07-23T06:20:28;99538.28;;;20.44;74.26
39267;BME280;24967;51.154;13.812;2022-07-23T06:22:55;99546.75;;;20.54;74.24
39267;BME280;24967;51.154;13.812;2022-07-23T06:25:21;99550.22;;;20.68;73.89
39267;BME280;24967;51.154;13.812;2022-07-23T06:27:48;99547.25;;;20.83;73.63
39267;BME280;24967;51.154;13.812;2022-07-23T06:30:14;99564.31;;;20.76;73.54
39267;BME280;24967;51.154;13.812;2022-07-23T06:32:43;99569.53;;;20.71;73.76
39267;BME280;24967;51.154;13.812;2022-07-23T06:35:10;99565.28;;;20.89;73.21
39267;BME280;24967;51.154;13.812;2022-07-23T06:37:36;99574.50;;;20.74;73.65
39267;BME280;24967;51.154;13.812;2022-07-23T06:40:03;99574.97;;;20.65;73.79
39267;BME280;24967;51.154;13.812;2022-07-23T06:42:30;99568.59;;;20.52;74.71
39267;BME280;24967;51.154;13.812;2022-07-23T06:44:56;99572.69;;;20.62;74.13
39267;BME280;24967;51.154;13.812;2022-07-23T06:47:23;99568.31;;;20.67;73.52
39267;BME280;24967;51.154;13.812;2022-07-23T06:49:51;99576.13;;;20.82;73.16
39267;BME280;24967;51.154;13.812;2022-07-23T06:52:17;99564.81;;;20.98;72.63
39267;BME280;24967;51.154;13.812;2022-07-23T06:54:43;99561.47;;;21.03;72.24
39267;BME280;24967;51.154;13.812;2022-07-23T06:57:10;99565.69;;;20.92;71.71
39267;BME280;24967;51.154;13.812;2022-07-23T06:59:37;99556.88;;;21.03;71.09
39267;BME280;24967;51.154;13.812;2022-07-23T07:02:05;99561.81;;;21.13;70.96
39267;BME280;24967;51.154;13.812;2022-07-23T07:04:32;99561.31;;;21.23;70.44
39267;BME280;24967;51.154;13.812;2022-07-23T07:07:00;99549.22;;;21.25;69.22
39267;BME280;24967;51.154;13.812;2022-07-23T07:09:27;99528.97;;;21.10;69.58
39267;BME280;24967;51.154;13.812;2022-07-23T07:11:53;99538.16;;;21.34;68.53
39267;BME280;24967;51.154;13.812;2022-07-23T07:14:19;99554.31;;;21.15;68.83
39267;BME280;24967;51.154;13.812;2022-07-23T07:16:46;99537.53;;;21.32;68.36
39267;BME280;24967;51.154;13.812;2022-07-23T07:19:12;99524.13;;;21.68;69.37
39267;BME280;24967;51.154;13.812;2022-07-23T07:21:39;99520.53;;;21.93;67.19
39267;BME280;24967;51.154;13.812;2022-07-23T07:24:07;99525.38;;;22.28;65.44
39267;BME280;24967;51.154;13.812;2022-07-23T07:26:33;99530.88;;;22.70;64.70
39267;BME280;24967;51.154;13.812;2022-07-23T07:29:00;99530.88;;;22.70;62.97
39267;BME280;24967;51.154;13.812;2022-07-23T07:31:26;99526.69;;;22.85;63.70
39267;BME280;24967;51.154;13.812;2022-07-23T07:33:53;99527.84;;;23.20;63.50
39267;BME280;24967;51.154;13.812;2022-07-23T07:36:22;99545.81;;;23.44;61.50
39267;BME280;24967;51.154;13.812;2022-07-23T07:38:48;99549.47;;;23.50;60.16
39267;BME280;24967;51.154;13.812;2022-07-23T07:41:16;99544.03;;;23.50;61.06
39267;BME280;24967;51.154;13.812;2022-07-23T07:43:47;99544.03;;;23.50;60.56
39267;BME280;24967;51.154;13.812;2022-07-23T07:46:14;99537.19;;;23.47;60.71
39267;BME280;24967;51.154;13.812;2022-07-23T07:48:40;99539.56;;;23.55;61.54
39267;BME280;24967;51.154;13.812;2022-07-23T07:51:07;99538.75;;;23.67;60.16
39267;BME280;24967;51.154;13.812;2022-07-23T07:53:33;99547.16;;;23.77;59.29
39267;BME280;24967;51.154;13.812;2022-07-23T07:55:59;99541.94;;;23.87;59.27
39267;BME280;24967;51.154;13.812;2022-07-23T07:58:27;99545.13;;;23.96;60.67
39267;BME280;24967;51.154;13.812;2022-07-23T08:00:54;99546.22;;;24.35;59.96
39267;BME280;24967;51.154;13.812;2022-07-23T08:03:20;99554.38;;;24.47;57.85
39267;BME280;24967;51.154;13.812;2022-07-23T08:05:46;99532.13;;;24.62;56.85
39267;BME280;24967;51.154;13.812;2022-07-23T08:08:13;99511.34;;;24.56;56.92
39267;BME280;24967;51.154;13.812;2022-07-23T08:10:40;99520.97;;;24.35;57.70
39267;BME280;24967;51.154;13.812;2022-07-23T08:13:12;99527.75;;;24.61;56.46
39267;BME280;24967;51.154;13.812;2022-07-23T08:15:41;99525.72;;;24.68;55.97
39267;BME280;24967;51.154;13.812;2022-07-23T08:18:07;99529.03;;;24.70;56.21
39267;BME280;24967;51.154;13.812;2022-07-23T08:20:34;99530.38;;;24.84;56.04
39267;BME280;24967;51.154;13.812;2022-07-23T08:23:03;99525.91;;;24.78;56.92
39267;BME280;24967;51.154;13.812;2022-07-23T08:25:32;99519.88;;;24.76;57.14
39267;BME280;24967;51.154;13.812;2022-07-23T08:27:59;99507.81;;;25.01;56.86
39267;BME280;24967;51.154;13.812;2022-07-23T08:30:27;99503.09;;;24.96;56.37
39267;BME280;24967;51.154;13.812;2022-07-23T08:32:58;99509.84;;;25.22;56.04
39267;BME280;24967;51.154;13.812;2022-07-23T08:35:27;99512.13;;;25.47;55.05
39267;BME280;24967;51.154;13.812;2022-07-23T08:37:54;99519.16;;;25.43;54.62
39267;BME280;24967;51.154;13.812;2022-07-23T08:40:22;99513.28;;;25.51;54.61
39267;BME280;24967;51.154;13.812;2022-07-23T08:42:49;99515.91;;;25.29;54.68
39267;BME280;24967;51.154;13.812;2022-07-23T08:45:18;99503.22;;;25.35;54.75
39267;BME280;24967;51.154;13.812;2022-07-23T08:47:49;99509.25;;;25.37;54.61
39267;BME280;24967;51.154;13.812;2022-07-23T08:50:17;99513.38;;;25.23;54.58
39267;BME280;24967;51.154;13.812;2022-07-23T08:52:43;99511.72;;;25.22;55.25
39267;BME280;24967;51.154;13.812;2022-07-23T08:55:10;99523.03;;;25.30;56.47
39267;BME280;24967;51.154;13.812;2022-07-23T08:57:36;99514.59;;;25.49;56.44
39267;BME280;24967;51.154;13.812;2022-07-23T09:00:04;99514.16;;;25.74;55.17
39267;BME280;24967;51.154;13.812;2022-07-23T09:02:38;99516.69;;;25.80;53.93
39267;BME280;24967;51.154;13.812;2022-07-23T09:05:05;99519.72;;;26.01;53.60
39267;BME280;24967;51.154;13.812;2022-07-23T09:07:33;99528.28;;;25.88;53.35
39267;BME280;24967;51.154;13.812;2022-07-23T09:10:06;99530.09;;;25.82;54.16
39267;BME280;24967;51.154;13.812;2022-07-23T09:12:32;99534.13;;;26.18;52.99
39267;BME280;24967;51.154;13.812;2022-07-23T09:15:04;99533.50;;;26.55;52.60
39267;BME280;24967;51.154;13.812;2022-07-23T09:17:38;99544.56;;;26.48;52.19
39267;BME280;24967;51.154;13.812;2022-07-23T09:20:09;99540.97;;;26.43;52.52
39267;BME280;24967;51.154;13.812;2022-07-23T09:22:38;99545.44;;;26.32;52.59
39267;BME280;24967;51.154;13.812;2022-07-23T09:25:07;99545.09;;;26.45;53.00
39267;BME280;24967;51.154;13.812;2022-07-23T09:27:51;99546.47;;;26.48;53.06
39267;BME280;24967;51.154;13.812;2022-07-23T09:30:19;99537.47;;;26.69;51.92
39267;BME280;24967;51.154;13.812;2022-07-23T09:33:04;99537.56;;;27.07;52.42
39267;BME280;24967;51.154;13.812;2022-07-23T09:35:45;99536.69;;;27.66;49.83
39267;BME280;24967;51.154;13.812;2022-07-23T09:38:16;99536.00;;;27.80;50.50
39267;BME280;24967;51.154;13.812;2022-07-23T09:40:44;99518.53;;;27.81;49.33
39267;BME280;24967;51.154;13.812;2022-07-23T09:43:11;99528.25;;;27.67;48.94
39267;BME280;24967;51.154;13.812;2022-07-23T09:45:38;99531.09;;;27.82;48.33
39267;BME280;24967;51.154;13.812;2022-07-23T09:48:13;99544.75;;;27.50;48.99
39267;BME280;24967;51.154;13.812;2022-07-23T09:50:40;99549.22;;;27.24;49.77
39267;BME280;24967;51.154;13.812;2022-07-23T09:53:06;99551.47;;;27.05;50.75
39267;BME280;24967;51.154;13.812;2022-07-23T09:55:36;99560.94;;;27.25;49.77
39267;BME280;24967;51.154;13.812;2022-07-23T09:58:04;99567.84;;;27.05;50.12
39267;BME280;24967;51.154;13.812;2022-07-23T10:00:32;99563.97;;;27.01;50.62
39267;BME280;24967;51.154;13.812;2022-07-23T10:02:59;99562.53;;;26.93;50.17
39267;BME280;24967;51.154;13.812;2022-07-23T10:05:28;99563.72;;;27.03;51.51
39267;BME280;24967;51.154;13.812;2022-07-23T10:07:55;99560.44;;;27.28;49.86
39267;BME280;24967;51.154;13.812;2022-07-23T10:10:22;99556.88;;;27.00;50.09
39267;BME280;24967;51.154;13.812;2022-07-23T10:12:53;99561.41;;;27.16;49.97
39267;BME280;24967;51.154;13.812;2022-07-23T10:15:46;99569.72;;;27.05;49.89
39267;BME280;24967;51.154;13.812;2022-07-23T10:18:13;99565.41;;;27.09;50.25
39267;BME280;24967;51.154;13.812;2022-07-23T10:20:40;99572.78;;;27.08;50.26
39267;BME280;24967;51.154;13.812;2022-07-23T10:23:11;99569.22;;;26.81;50.92
39267;BME280;24967;51.154;13.812;2022-07-23T10:25:46;99580.69;;;26.83;50.55
39267;BME280;24967;51.154;13.812;2022-07-23T10:28:41;99575.59;;;26.64;50.42
39267;BME280;24967;51.154;13.812;2022-07-23T10:31:17;99573.97;;;26.90;50.14
39267;BME280;24967;51.154;13.812;2022-07-23T10:33:56;99572.13;;;26.96;49.93
39267;BME280;24967;51.154;13.812;2022-07-23T10:36:29;99578.78;;;27.10;49.47
39267;BME280;24967;51.154;13.812;2022-07-23T10:39:03;99588.28;;;27.03;50.01
39267;BME280;24967;51.154;13.812;2022-07-23T10:41:34;99590.84;;;26.87;50.24
39267;BME280;24967;51.154;13.812;2022-07-23T10:44:09;99588.97;;;27.15;49.81
39267;BME280;24967;51.154;13.812;2022-07-23T10:46:53;99580.88;;;27.57;50.11
39267;BME280;24967;51.154;13.812;2022-07-23T10:49:24;99591.44;;;27.49;49.24
39267;BME280;24967;51.154;13.812;2022-07-23T10:52:16;99598.84;;;27.21;50.04
39267;BME280;24967;51.154;13.812;2022-07-23T10:54:44;99600.03;;;27.30;49.63
39267;BME280;24967;51.154;13.812;2022-07-23T10:57:12;99601.78;;;27.42;49.24
39267;BME280;24967;51.154;13.812;2022-07-23T11:00:19;99603.19;;;27.49;48.91
39267;BME280;24967;51.154;13.812;2022-07-23T11:02:48;99609.72;;;27.16;50.47
39267;BME280;24967;51.154;13.812;2022-07-23T11:05:16;99608.25;;;27.08;50.31
39267;BME280;24967;51.154;13.812;2022-07-23T11:08:12;99611.72;;;27.04;50.80
39267;BME280;24967;51.154;13.812;2022-07-23T11:10:41;99609.78;;;26.99;50.94
39267;BME280;24967;51.154;13.812;2022-07-23T11:13:31;99610.59;;;26.72;51.77
39267;BME280;24967;51.154;13.812;2022-07-23T11:16:17;99607.72;;;26.84;51.18
39267;BME280;24967;51.154;13.812;2022-07-23T11:19:08;99612.22;;;26.73;51.48
39267;BME280;24967;51.154;13.812;2022-07-23T11:21:50;99604.59;;;26.54;51.69
39267;BME280;24967;51.154;13.812;2022-07-23T11:24:21;99606.50;;;26.53;52.22
39267;BME280;24967;51.154;13.812;2022-07-23T11:27:03;99609.41;;;26.08;53.09
39267;BME280;24967;51.154;13.812;2022-07-23T11:29:46;99617.00;;;26.22;53.43
39267;BME280;24967;51.154;13.812;2022-07-23T11:32:38;99622.59;;;26.33;52.86
39267;BME280;24967;51.154;13.812;2022-07-23T11:35:21;99629.16;;;25.98;53.69
39267;BME280;24967;51.154;13.812;2022-07-23T11:37:48;99628.06;;;25.65;54.46
39267;BME280;24967;51.154;13.812;2022-07-23T11:40:19;99616.81;;;25.90;54.11
39267;BME280;24967;51.154;13.812;2022-07-23T11:42:54;99620.81;;;25.71;54.52
39267;BME280;24967;51.154;13.812;2022-07-23T11:45:22;99637.06;;;25.66;54.70
39267;BME280;24967;51.154;13.812;2022-07-23T11:47:50;99639.69;;;25.27;55.61
39267;BME280;24967;51.154;13.812;2022-07-23T11:50:17;99629.56;;;25.39;55.87
39267;BME280;24967;51.154;13.812;2022-07-23T11:52:43;99630.28;;;25.34;55.97
39267;BME280;24967;51.154;13.812;2022-07-23T11:55:11;99636.75;;;25.17;56.16
39267;BME280;24967;51.154;13.812;2022-07-23T11:57:39;99627.06;;;25.21;55.97
39267;BME280;24967;51.154;13.812;2022-07-23T12:00:07;99628.47;;;24.83;57.34
39267;BME280;24967;51.154;13.812;2022-07-23T12:02:35;99628.84;;;24.75;57.61
39267;BME280;24967;51.154;13.812;2022-07-23T12:05:04;99640.13;;;24.66;57.66
39267;BME280;24967;51.154;13.812;2022-07-23T12:07:34;99636.16;;;24.45;58.47
39267;BME280;24967;51.154;13.812;2022-07-23T12:10:03;99640.97;;;24.20;59.41
39267;BME280;24967;51.154;13.812;2022-07-23T12:12:35;99642.03;;;24.19;60.05
39267;BME280;24967;51.154;13.812;2022-07-23T12:15:03;99636.13;;;24.22;59.90
39267;BME280;24967;51.154;13.812;2022-07-23T12:17:35;99640.28;;;24.25;59.49
39267;BME280;24967;51.154;13.812;2022-07-23T12:20:06;99639.44;;;24.12;60.15
39267;BME280;24967;51.154;13.812;2022-07-23T12:22:35;99638.25;;;24.20;60.23
39267;BME280;24967;51.154;13.812;2022-07-23T12:25:04;99638.97;;;24.04;60.54
39267;BME280;24967;51.154;13.812;2022-07-23T12:27:32;99634.59;;;24.14;60.61
39267;BME280;24967;51.154;13.812;2022-07-23T12:29:58;99650.78;;;24.33;59.48
39267;BME280;24967;51.154;13.812;2022-07-23T12:32:26;99650.31;;;24.24;59.44
39267;BME280;24967;51.154;13.812;2022-07-23T12:35:06;99637.09;;;24.04;60.61
39267;BME280;24967;51.154;13.812;2022-07-23T12:37:34;99641.69;;;23.92;60.84
39267;BME280;24967;51.154;13.812;2022-07-23T12:40:30;99636.00;;;24.17;60.43
39267;BME280;24967;51.154;13.812;2022-07-23T12:42:59;99646.03;;;24.28;60.33
39267;BME280;24967;51.154;13.812;2022-07-23T12:45:26;99645.56;;;24.55;59.71
39267;BME280;24967;51.154;13.812;2022-07-23T12:47:55;99657.28;;;24.43;59.98
39267;BME280;24967;51.154;13.812;2022-07-23T12:50:42;99666.34;;;24.73;60.30
39267;BME280;24967;51.154;13.812;2022-07-23T12:53:11;99652.25;;;24.76;59.33
39267;BME280;24967;51.154;13.812;2022-07-23T12:55:38;99644.94;;;25.05;58.68
39267;BME280;24967;51.154;13.812;2022-07-23T12:58:07;99628.88;;;25.32;57.15